sensor_id;sensor_type;location;lat;lon;timestamp;pressure;altitude;pressure_sealevel;temperature;humidity
31911;BME280;18457;52.432;16.914;2023-05-23T00:01:24;100326.27;;;17.52;56.10
31911;BME280;18457;52.432;16.914;2023-05-23T00:03:58;100322.88;;;17.54;56.28
31911;BME280;18457;52.432;16.914;2023-05-23T00:06:31;100316.91;;;17.53;55.66
31911;BME280;18457;52.432;16.914;2023-05-23T00:09:06;100320.46;;;17.48;56.12
31911;BME280;18457;52.432;16.914;2023-05-23T00:11:38;100320.47;;;17.40;56.40
31911;BME280;18457;52.432;16.914;2023-05-23T00:14:15;100313.53;;;17.37;56.31
31911;BME280;18457;52.432;16.914;2023-05-23T00:16:45;100318.11;;;17.40;56.48
31911;BME280;18457;52.432;16.914;2023-05-23T00:19:19;100310.72;;;17.45;56.29
31911;BME280;18457;52.432;16.914;2023-05-23T00:21:51;100310.21;;;17.45;56.20
31911;BME280;18457;52.432;16.914;2023-05-23T00:24:27;100307.94;;;17.33;56.56
31911;BME280;18457;52.432;16.914;2023-05-23T00:26:59;100309.94;;;17.36;56.52
31911;BME280;18457;52.432;16.914;2023-05-23T00:29:31;100309.49;;;17.38;56.14
31911;BME280;18457;52.432;16.914;2023-05-23T00:32:03;100304.81;;;17.40;56.22
31911;BME280;18457;52.432;16.914;2023-05-23T00:34:35;100304.17;;;17.35;56.41
31911;BME280;18457;52.432;16.914;2023-05-23T00:37:07;100299.34;;;17.30;56.85
31911;BME280;18457;52.432;16.914;2023-05-23T00:39:38;100302.64;;;17.29;56.64
31911;BME280;18457;52.432;16.914;2023-05-23T00:42:10;100298.54;;;17.31;56.60
31911;BME280;18457;52.432;16.914;2023-05-23T00:44:42;100301.46;;;17.34;56.52
31911;BME280;18457;52.432;16.914;2023-05-23T00:47:14;100298.88;;;17.32;56.96
31911;BME280;18457;52.432;16.914;2023-05-23T00:49:46;100304.62;;;17.30;56.85
31911;BME280;18457;52.432;16.914;2023-05-23T00:52:17;100302.14;;;17.28;56.68
31911;BME280;18457;52.432;16.914;2023-05-23T00:54:49;100304.80;;;17.23;56.98
31911;BME280;18457;52.432;16.914;2023-05-23T00:57:21;100299.08;;;17.24;56.95
31911;BME280;18457;52.432;16.914;2023-05-23T00:59:55;100302.63;;;17.23;57.01
31911;BME280;18457;52.432;16.914;2023-05-23T01:02:27;100301.25;;;17.21;57.13
31911;BME280;18457;52.432;16.914;2023-05-23T01:05:02;100296.63;;;17.19;57.42
31911;BME280;18457;52.432;16.914;2023-05-23T01:07:33;100295.83;;;17.13;57.66
31911;BME280;18457;52.432;16.914;2023-05-23T01:10:07;100296.13;;;17.08;57.67
31911;BME280;18457;52.432;16.914;2023-05-23T01:12:46;100298.73;;;17.10;57.71
31911;BME280;18457;52.432;16.914;2023-05-23T01:15:22;100296.66;;;17.08;57.40
31911;BME280;18457;52.432;16.914;2023-05-23T01:17:58;100292.06;;;17.02;57.44
31911;BME280;18457;52.432;16.914;2023-05-23T01:20:37;100297.39;;;17.01;57.04
31911;BME280;18457;52.432;16.914;2023-05-23T01:23:27;100297.55;;;16.98;57.19
31911;BME280;18457;52.432;16.914;2023-05-23T01:26:16;100295.92;;;17.01;57.75
31911;BME280;18457;52.432;16.914;2023-05-23T01:28:53;100291.77;;;16.97;57.40
31911;BME280;18457;52.432;16.914;2023-05-23T01:31:27;100287.79;;;16.93;57.50
31911;BME280;18457;52.432;16.914;2023-05-23T01:34:01;100284.23;;;16.95;57.47
31911;BME280;18457;52.432;16.914;2023-05-23T01:36:34;100284.09;;;16.90;57.80
31911;BME280;18457;52.432;16.914;2023-05-23T01:39:10;100284.16;;;16.89;57.66
31911;BME280;18457;52.432;16.914;2023-05-23T01:41:42;100284.67;;;16.90;57.60
31911;BME280;18457;52.432;16.914;2023-05-23T01:44:14;100282.46;;;16.86;57.48
31911;BME280;18457;52.432;16.914;2023-05-23T01:46:50;100280.86;;;16.86;57.56
31911;BME280;18457;52.432;16.914;2023-05-23T01:49:22;100278.89;;;16.85;57.69
31911;BME280;18457;52.432;16.914;2023-05-23T01:51:55;100275.38;;;16.86;57.62
31911;BME280;18457;52.432;16.914;2023-05-23T01:54:27;100276.66;;;16.86;57.46
31911;BME280;18457;52.432;16.914;2023-05-23T01:57:00;100270.35;;;16.85;57.79
31911;BME280;18457;52.432;16.914;2023-05-23T01:59:32;100267.44;;;16.77;58.25
31911;BME280;18457;52.432;16.914;2023-05-23T02:02:04;100261.91;;;16.71;58.38
31911;BME280;18457;52.432;16.914;2023-05-23T02:04:36;100257.98;;;16.73;58.10
31911;BME280;18457;52.432;16.914;2023-05-23T02:07:08;100257.89;;;16.79;58.01
31911;BME280;18457;52.432;16.914;2023-05-23T02:09:40;100259.43;;;16.77;58.47
31911;BME280;18457;52.432;16.914;2023-05-23T02:12:12;100254.66;;;16.70;58.68
31911;BME280;18457;52.432;16.914;2023-05-23T02:14:44;100254.63;;;16.64;58.64
31911;BME280;18457;52.432;16.914;2023-05-23T02:17:16;100251.14;;;16.68;58.57
31911;BME280;18457;52.432;16.914;2023-05-23T02:19:48;100247.13;;;16.61;58.79
31911;BME280;18457;52.432;16.914;2023-05-23T02:22:24;100253.17;;;16.53;59.06
31911;BME280;18457;52.432;16.914;2023-05-23T02:24:56;100249.31;;;16.46;59.60
31911;BME280;18457;52.432;16.914;2023-05-23T02:27:28;100248.75;;;16.50;59.53
31911;BME280;18457;52.432;16.914;2023-05-23T02:29:59;100242.72;;;16.46;59.69
31911;BME280;18457;52.432;16.914;2023-05-23T02:32:31;100240.77;;;16.49;59.54
31911;BME280;18457;52.432;16.914;2023-05-23T02:35:04;100241.29;;;16.49;59.29
31911;BME280;18457;52.432;16.914;2023-05-23T02:37:36;100233.26;;;16.50;59.65
31911;BME280;18457;52.432;16.914;2023-05-23T02:40:09;100228.40;;;16.49;59.56
31911;BME280;18457;52.432;16.914;2023-05-23T02:42:41;100232.44;;;16.44;59.57
31911;BME280;18457;52.432;16.914;2023-05-23T02:45:13;100235.90;;;16.37;60.06
31911;BME280;18457;52.432;16.914;2023-05-23T02:47:45;100236.21;;;16.31;60.50
31911;BME280;18457;52.432;16.914;2023-05-23T02:50:17;100232.28;;;16.22;61.08
31911;BME280;18457;52.432;16.914;2023-05-23T02:52:49;100228.36;;;16.20;60.75
31911;BME280;18457;52.432;16.914;2023-05-23T02:55:21;100227.11;;;16.27;60.44
31911;BME280;18457;52.432;16.914;2023-05-23T02:57:53;100228.22;;;16.23;60.77
31911;BME280;18457;52.432;16.914;2023-05-23T03:00:27;100229.31;;;16.20;61.01
31911;BME280;18457;52.432;16.914;2023-05-23T03:03:00;100226.52;;;16.13;61.37
31911;BME280;18457;52.432;16.914;2023-05-23T03:05:32;100227.96;;;16.18;61.14
31911;BME280;18457;52.432;16.914;2023-05-23T03:08:04;100222.71;;;16.13;61.56
31911;BME280;18457;52.432;16.914;2023-05-23T03:10:36;100221.45;;;16.06;61.57
31911;BME280;18457;52.432;16.914;2023-05-23T03:13:08;100220.20;;;16.09;61.54
31911;BME280;18457;52.432;16.914;2023-05-23T03:15:40;100213.35;;;16.07;61.68
31911;BME280;18457;52.432;16.914;2023-05-23T03:18:12;100210.77;;;16.01;62.02
31911;BME280;18457;52.432;16.914;2023-05-23T03:20:43;100212.45;;;15.93;62.39
31911;BME280;18457;52.432;16.914;2023-05-23T03:23:15;100212.41;;;15.97;62.26
31911;BME280;18457;52.432;16.914;2023-05-23T03:25:47;100216.77;;;15.94;62.66
31911;BME280;18457;52.432;16.914;2023-05-23T03:28:19;100216.39;;;15.91;62.32
31911;BME280;18457;52.432;16.914;2023-05-23T03:30:51;100214.95;;;15.86;62.87
31911;BME280;18457;52.432;16.914;2023-05-23T03:33:22;100211.61;;;15.88;62.41
31911;BME280;18457;52.432;16.914;2023-05-23T03:35:55;100214.57;;;15.97;62.21
31911;BME280;18457;52.432;16.914;2023-05-23T03:38:28;100213.57;;;15.99;62.25
31911;BME280;18457;52.432;16.914;2023-05-23T03:40:59;100213.13;;;15.90;63.04
31911;BME280;18457;52.432;16.914;2023-05-23T03:43:31;100210.43;;;15.86;63.00
31911;BME280;18457;52.432;16.914;2023-05-23T03:46:03;100209.23;;;15.92;62.63
31911;BME280;18457;52.432;16.914;2023-05-23T03:48:35;100212.05;;;15.93;62.94
31911;BME280;18457;52.432;16.914;2023-05-23T03:51:07;100209.19;;;15.92;63.00
31911;BME280;18457;52.432;16.914;2023-05-23T03:53:39;100208.70;;;15.91;62.96
31911;BME280;18457;52.432;16.914;2023-05-23T03:56:12;100210.22;;;15.93;63.00
31911;BME280;18457;52.432;16.914;2023-05-23T03:58:44;100212.88;;;15.98;62.75
31911;BME280;18457;52.432;16.914;2023-05-23T04:01:17;100212.19;;;15.98;62.54
31911;BME280;18457;52.432;16.914;2023-05-23T04:03:49;100216.02;;;15.98;62.75
31911;BME280;18457;52.432;16.914;2023-05-23T04:06:23;100216.86;;;15.99;63.01
31911;BME280;18457;52.432;16.914;2023-05-23T04:08:54;100213.29;;;15.94;63.79
31911;BME280;18457;52.432;16.914;2023-05-23T04:11:27;100210.29;;;15.99;63.78
31911;BME280;18457;52.432;16.914;2023-05-23T04:13:58;100204.75;;;16.04;63.31
31911;BME280;18457;52.432;16.914;2023-05-23T04:16:31;100204.04;;;16.08;63.29
31911;BME280;18457;52.432;16.914;2023-05-23T04:19:05;100204.09;;;16.03;63.55
31911;BME280;18457;52.432;16.914;2023-05-23T04:21:38;100205.20;;;16.14;62.95
31911;BME280;18457;52.432;16.914;2023-05-23T04:24:16;100201.89;;;16.21;62.26
31911;BME280;18457;52.432;16.914;2023-05-23T04:26:48;100203.76;;;16.24;62.43
31911;BME280;18457;52.432;16.914;2023-05-23T04:29:20;100205.56;;;16.24;62.65
31911;BME280;18457;52.432;16.914;2023-05-23T04:31:52;100202.28;;;16.24;63.22
31911;BME280;18457;52.432;16.914;2023-05-23T04:34:24;100198.09;;;16.28;62.97
31911;BME280;18457;52.432;16.914;2023-05-23T04:36:57;100191.11;;;16.32;62.59
31911;BME280;18457;52.432;16.914;2023-05-23T04:39:31;100192.50;;;16.34;62.45
31911;BME280;18457;52.432;16.914;2023-05-23T04:42:26;100193.17;;;16.38;62.38
31911;BME280;18457;52.432;16.914;2023-05-23T04:45:09;100190.05;;;16.42;62.02
31911;BME280;18457;52.432;16.914;2023-05-23T04:48:20;100185.06;;;16.47;61.92
31911;BME280;18457;52.432;16.914;2023-05-23T04:50:52;100188.48;;;16.52;62.12
31911;BME280;18457;52.432;16.914;2023-05-23T04:53:25;100189.71;;;16.49;62.64
31911;BME280;18457;52.432;16.914;2023-05-23T04:55:58;100187.61;;;16.54;62.53
31911;BME280;18457;52.432;16.914;2023-05-23T04:58:30;100191.99;;;16.58;62.28
31911;BME280;18457;52.432;16.914;2023-05-23T05:01:06;100188.35;;;16.65;62.57
31911;BME280;18457;52.432;16.914;2023-05-23T05:03:38;100183.95;;;16.69;62.66
31911;BME280;18457;52.432;16.914;2023-05-23T05:06:14;100180.19;;;16.71;62.61
31911;BME280;18457;52.432;16.914;2023-05-23T05:08:46;100183.05;;;16.73;62.71
31911;BME280;18457;52.432;16.914;2023-05-23T05:11:18;100176.91;;;16.78;62.58
31911;BME280;18457;52.432;16.914;2023-05-23T05:13:50;100180.74;;;16.85;62.27
31911;BME280;18457;52.432;16.914;2023-05-23T05:16:22;100177.17;;;16.90;62.03
31911;BME280;18457;52.432;16.914;2023-05-23T05:18:54;100173.73;;;16.90;62.52
31911;BME280;18457;52.432;16.914;2023-05-23T05:21:26;100172.52;;;16.95;62.27
31911;BME280;18457;52.432;16.914;2023-05-23T05:23:58;100173.88;;;17.00;62.02
31911;BME280;18457;52.432;16.914;2023-05-23T05:26:31;100162.91;;;17.04;62.12
31911;BME280;18457;52.432;16.914;2023-05-23T05:29:03;100159.84;;;17.10;61.92
31911;BME280;18457;52.432;16.914;2023-05-23T05:31:36;100154.89;;;17.20;61.39
31911;BME280;18457;52.432;16.914;2023-05-23T05:34:08;100147.16;;;17.34;61.09
31911;BME280;18457;52.432;16.914;2023-05-23T05:36:41;100152.44;;;17.44;60.88
31911;BME280;18457;52.432;16.914;2023-05-23T05:39:19;100156.45;;;17.58;60.42
31911;BME280;18457;52.432;16.914;2023-05-23T05:41:50;100159.05;;;17.70;59.85
31911;BME280;18457;52.432;16.914;2023-05-23T05:44:22;100160.30;;;17.80;59.84
31911;BME280;18457;52.432;16.914;2023-05-23T05:46:54;100160.75;;;17.90;59.15
31911;BME280;18457;52.432;16.914;2023-05-23T05:49:26;100157.50;;;17.96;58.54
31911;BME280;18457;52.432;16.914;2023-05-23T05:51:58;100158.27;;;18.05;58.53
31911;BME280;18457;52.432;16.914;2023-05-23T05:54:30;100159.88;;;18.17;59.02
31911;BME280;18457;52.432;16.914;2023-05-23T05:57:02;100156.48;;;18.25;58.13
31911;BME280;18457;52.432;16.914;2023-05-23T05:59:35;100157.05;;;18.34;57.63
31911;BME280;18457;52.432;16.914;2023-05-23T06:02:07;100147.98;;;18.39;57.78
31911;BME280;18457;52.432;16.914;2023-05-23T06:04:39;100149.75;;;18.47;57.12
31911;BME280;18457;52.432;16.914;2023-05-23T06:07:11;100149.41;;;18.49;57.56
31911;BME280;18457;52.432;16.914;2023-05-23T06:09:43;100148.39;;;18.51;57.45
31911;BME280;18457;52.432;16.914;2023-05-23T06:12:15;100146.95;;;18.57;57.83
31911;BME280;18457;52.432;16.914;2023-05-23T06:14:47;100140.27;;;18.64;57.41
31911;BME280;18457;52.432;16.914;2023-05-23T06:17:19;100140.41;;;18.68;57.05
31911;BME280;18457;52.432;16.914;2023-05-23T06:19:51;100133.73;;;18.69;57.41
31911;BME280;18457;52.432;16.914;2023-05-23T06:22:24;100132.27;;;18.72;57.40
31911;BME280;18457;52.432;16.914;2023-05-23T06:24:56;100131.69;;;18.78;57.23
31911;BME280;18457;52.432;16.914;2023-05-23T06:27:27;100127.73;;;18.80;57.68
31911;BME280;18457;52.432;16.914;2023-05-23T06:30:00;100122.08;;;18.83;57.61
31911;BME280;18457;52.432;16.914;2023-05-23T06:32:32;100124.23;;;18.92;57.58
31911;BME280;18457;52.432;16.914;2023-05-23T06:35:04;100125.73;;;18.97;57.05
31911;BME280;18457;52.432;16.914;2023-05-23T06:37:36;100127.54;;;19.06;57.31
31911;BME280;18457;52.432;16.914;2023-05-23T06:40:13;100124.48;;;19.14;56.89
31911;BME280;18457;52.432;16.914;2023-05-23T06:42:45;100123.95;;;19.22;57.18
31911;BME280;18457;52.432;16.914;2023-05-23T06:45:36;100121.42;;;19.36;57.47
31911;BME280;18457;52.432;16.914;2023-05-23T06:48:09;100121.77;;;19.42;57.25
31911;BME280;18457;52.432;16.914;2023-05-23T06:50:41;100120.14;;;19.50;56.94
31911;BME280;18457;52.432;16.914;2023-05-23T06:53:14;100121.16;;;19.57;56.55
31911;BME280;18457;52.432;16.914;2023-05-23T06:55:49;100128.59;;;19.58;55.99
31911;BME280;18457;52.432;16.914;2023-05-23T06:58:23;100127.61;;;19.62;55.68
31911;BME280;18457;52.432;16.914;2023-05-23T07:00:57;100126.04;;;19.71;55.94
31911;BME280;18457;52.432;16.914;2023-05-23T07:03:33;100126.63;;;19.76;55.52
31911;BME280;18457;52.432;16.914;2023-05-23T07:06:08;100124.35;;;19.80;54.31
31911;BME280;18457;52.432;16.914;2023-05-23T07:08:40;100124.95;;;19.88;53.96
31911;BME280;18457;52.432;16.914;2023-05-23T07:11:13;100128.39;;;19.99;54.20
31911;BME280;18457;52.432;16.914;2023-05-23T07:13:47;100130.48;;;20.07;54.13
31911;BME280;18457;52.432;16.914;2023-05-23T07:16:25;100132.29;;;20.10;53.12
31911;BME280;18457;52.432;16.914;2023-05-23T07:19:04;100130.06;;;20.13;52.97
31911;BME280;18457;52.432;16.914;2023-05-23T07:21:39;100125.96;;;20.19;53.88
31911;BME280;18457;52.432;16.914;2023-05-23T07:24:11;100129.32;;;20.21;53.74
31911;BME280;18457;52.432;16.914;2023-05-23T07:26:43;100129.80;;;20.28;53.35
31911;BME280;18457;52.432;16.914;2023-05-23T07:29:15;100123.73;;;20.36;53.22
31911;BME280;18457;52.432;16.914;2023-05-23T07:31:49;100124.30;;;20.43;53.43
31911;BME280;18457;52.432;16.914;2023-05-23T07:34:22;100123.94;;;20.49;53.34
31911;BME280;18457;52.432;16.914;2023-05-23T07:36:58;100124.09;;;20.49;52.96
31911;BME280;18457;52.432;16.914;2023-05-23T07:39:35;100124.52;;;20.56;52.98
31911;BME280;18457;52.432;16.914;2023-05-23T07:42:08;100124.14;;;20.64;53.17
31911;BME280;18457;52.432;16.914;2023-05-23T07:44:41;100126.23;;;20.68;53.48
31911;BME280;18457;52.432;16.914;2023-05-23T07:47:11;100123.71;;;20.67;52.38
31911;BME280;18457;52.432;16.914;2023-05-23T07:49:43;100122.39;;;20.73;52.23
31911;BME280;18457;52.432;16.914;2023-05-23T07:52:16;100117.61;;;20.83;52.59
31911;BME280;18457;52.432;16.914;2023-05-23T07:54:48;100117.64;;;20.88;52.19
31911;BME280;18457;52.432;16.914;2023-05-23T07:57:20;100118.98;;;20.95;51.89
31911;BME280;18457;52.432;16.914;2023-05-23T07:59:54;100118.73;;;21.01;51.41
31911;BME280;18457;52.432;16.914;2023-05-23T08:02:26;100117.46;;;21.06;51.23
31911;BME280;18457;52.432;16.914;2023-05-23T08:04:58;100117.99;;;21.09;51.35
31911;BME280;18457;52.432;16.914;2023-05-23T08:07:32;100114.36;;;21.11;51.21
31911;BME280;18457;52.432;16.914;2023-05-23T08:10:09;100115.55;;;21.10;50.96
31911;BME280;18457;52.432;16.914;2023-05-23T08:12:41;100117.36;;;21.13;51.10
31911;BME280;18457;52.432;16.914;2023-05-23T08:15:16;100114.48;;;21.20;50.98
31911;BME280;18457;52.432;16.914;2023-05-23T08:17:53;100114.94;;;21.26;50.23
31911;BME280;18457;52.432;16.914;2023-05-23T08:20:27;100118.11;;;21.30;50.13
31911;BME280;18457;52.432;16.914;2023-05-23T08:23:02;100112.63;;;21.35;50.28
31911;BME280;18457;52.432;16.914;2023-05-23T08:25:34;100107.16;;;21.39;49.39
31911;BME280;18457;52.432;16.914;2023-05-23T08:28:06;100111.32;;;21.50;49.73
31911;BME280;18457;52.432;16.914;2023-05-23T08:31:03;100105.48;;;21.59;49.15
31911;BME280;18457;52.432;16.914;2023-05-23T08:33:37;100105.19;;;21.65;48.53
31911;BME280;18457;52.432;16.914;2023-05-23T08:36:09;100107.59;;;21.69;48.03
31911;BME280;18457;52.432;16.914;2023-05-23T08:38:41;100108.31;;;21.75;47.56
31911;BME280;18457;52.432;16.914;2023-05-23T08:41:22;100104.52;;;21.82;47.44
31911;BME280;18457;52.432;16.914;2023-05-23T08:43:58;100102.42;;;21.88;47.03
31911;BME280;18457;52.432;16.914;2023-05-23T08:46:34;100099.64;;;21.91;46.66
31911;BME280;18457;52.432;16.914;2023-05-23T08:49:10;100097.40;;;21.91;46.47
31911;BME280;18457;52.432;16.914;2023-05-23T08:51:44;100101.15;;;21.92;46.11
31911;BME280;18457;52.432;16.914;2023-05-23T08:54:21;100103.57;;;21.94;44.64
31911;BME280;18457;52.432;16.914;2023-05-23T08:56:53;100096.59;;;22.01;44.80
31911;BME280;18457;52.432;16.914;2023-05-23T08:59:26;100100.22;;;22.12;45.13
31911;BME280;18457;52.432;16.914;2023-05-23T09:01:58;100099.48;;;22.19;44.71
31911;BME280;18457;52.432;16.914;2023-05-23T09:04:31;100102.42;;;22.21;43.90
31911;BME280;18457;52.432;16.914;2023-05-23T09:07:10;100103.80;;;22.29;44.37
31911;BME280;18457;52.432;16.914;2023-05-23T09:09:42;100103.27;;;22.39;44.72
31911;BME280;18457;52.432;16.914;2023-05-23T09:12:15;100098.98;;;22.44;44.45
31911;BME280;18457;52.432;16.914;2023-05-23T09:14:50;100094.34;;;22.54;44.34
31911;BME280;18457;52.432;16.914;2023-05-23T09:17:23;100096.47;;;22.65;43.93
31911;BME280;18457;52.432;16.914;2023-05-23T09:19:55;100091.66;;;22.72;43.40
31911;BME280;18457;52.432;16.914;2023-05-23T09:22:40;100093.08;;;22.79;42.23
31911;BME280;18457;52.432;16.914;2023-05-23T09:25:17;100091.58;;;22.91;41.15
31911;BME280;18457;52.432;16.914;2023-05-23T09:27:48;100091.60;;;23.02;40.98
31911;BME280;18457;52.432;16.914;2023-05-23T09:30:20;100090.71;;;23.11;40.94
31911;BME280;18457;52.432;16.914;2023-05-23T09:32:59;100088.90;;;23.13;41.01
31911;BME280;18457;52.432;16.914;2023-05-23T09:35:44;100090.69;;;23.11;40.95
31911;BME280;18457;52.432;16.914;2023-05-23T09:38:17;100090.52;;;23.06;41.32
31911;BME280;18457;52.432;16.914;2023-05-23T09:40:53;100092.60;;;22.99;41.07
31911;BME280;18457;52.432;16.914;2023-05-23T09:43:29;100092.73;;;22.91;41.07
31911;BME280;18457;52.432;16.914;2023-05-23T09:46:08;100088.66;;;22.86;41.00
31911;BME280;18457;52.432;16.914;2023-05-23T09:48:41;100080.58;;;22.79;41.47
31911;BME280;18457;52.432;16.914;2023-05-23T09:51:19;100077.23;;;22.68;40.97
31911;BME280;18457;52.432;16.914;2023-05-23T09:53:51;100075.85;;;22.69;41.45
31911;BME280;18457;52.432;16.914;2023-05-23T09:56:23;100076.54;;;22.65;41.18
31911;BME280;18457;52.432;16.914;2023-05-23T09:58:58;100075.52;;;22.67;41.26
31911;BME280;18457;52.432;16.914;2023-05-23T10:01:32;100075.08;;;22.63;41.63
31911;BME280;18457;52.432;16.914;2023-05-23T10:04:05;100075.48;;;22.67;41.44
31911;BME280;18457;52.432;16.914;2023-05-23T10:06:43;100074.76;;;22.78;41.95
31911;BME280;18457;52.432;16.914;2023-05-23T10:09:18;100072.95;;;22.89;41.87
31911;BME280;18457;52.432;16.914;2023-05-23T10:12:34;100069.58;;;22.99;41.13
31911;BME280;18457;52.432;16.914;2023-05-23T10:15:10;100069.62;;;23.14;40.87
31911;BME280;18457;52.432;16.914;2023-05-23T10:18:06;100068.59;;;23.31;40.46
31911;BME280;18457;52.432;16.914;2023-05-23T10:20:44;100066.62;;;23.44;40.32
31911;BME280;18457;52.432;16.914;2023-05-23T10:23:19;100065.55;;;23.66;40.44
31911;BME280;18457;52.432;16.914;2023-05-23T10:25:52;100064.30;;;23.89;40.17
31911;BME280;18457;52.432;16.914;2023-05-23T10:28:24;100061.67;;;24.13;40.29
31911;BME280;18457;52.432;16.914;2023-05-23T10:30:57;100059.33;;;24.19;39.20
31911;BME280;18457;52.432;16.914;2023-05-23T10:33:35;100060.41;;;24.17;38.86
31911;BME280;18457;52.432;16.914;2023-05-23T10:36:17;100059.76;;;24.18;38.40
31911;BME280;18457;52.432;16.914;2023-05-23T10:38:54;100058.82;;;24.30;38.81
31911;BME280;18457;52.432;16.914;2023-05-23T10:41:33;100057.83;;;24.39;39.64
31911;BME280;18457;52.432;16.914;2023-05-23T10:44:11;100057.01;;;24.33;38.81
31911;BME280;18457;52.432;16.914;2023-05-23T10:46:54;100057.86;;;24.23;39.10
31911;BME280;18457;52.432;16.914;2023-05-23T10:49:39;100056.00;;;24.23;39.02
31911;BME280;18457;52.432;16.914;2023-05-23T10:52:13;100052.48;;;24.23;39.29
31911;BME280;18457;52.432;16.914;2023-05-23T10:54:48;100052.75;;;24.22;39.26
31911;BME280;18457;52.432;16.914;2023-05-23T10:57:23;100049.08;;;24.27;39.55
31911;BME280;18457;52.432;16.914;2023-05-23T10:59:56;100049.36;;;24.32;39.38
31911;BME280;18457;52.432;16.914;2023-05-23T11:02:28;100050.02;;;24.37;39.42
31911;BME280;18457;52.432;16.914;2023-05-23T11:05:18;100050.05;;;24.43;39.04
31911;BME280;18457;52.432;16.914;2023-05-23T11:08:11;100050.46;;;24.51;38.80
31911;BME280;18457;52.432;16.914;2023-05-23T11:10:55;100053.48;;;24.52;38.21
31911;BME280;18457;52.432;16.914;2023-05-23T11:13:57;100048.77;;;24.57;38.30
31911;BME280;18457;52.432;16.914;2023-05-23T11:16:38;100049.08;;;24.54;39.13
31911;BME280;18457;52.432;16.914;2023-05-23T11:19:24;100050.06;;;24.45;38.69
31911;BME280;18457;52.432;16.914;2023-05-23T11:22:01;100045.04;;;24.33;38.36
31911;BME280;18457;52.432;16.914;2023-05-23T11:24:51;100040.59;;;24.22;38.29
31911;BME280;18457;52.432;16.914;2023-05-23T11:27:32;100042.94;;;24.14;38.52
31911;BME280;18457;52.432;16.914;2023-05-23T11:30:08;100039.77;;;24.04;38.14
31911;BME280;18457;52.432;16.914;2023-05-23T11:32:49;100044.43;;;23.97;38.76
31911;BME280;18457;52.432;16.914;2023-05-23T11:35:21;100044.36;;;23.91;38.94
31911;BME280;18457;52.432;16.914;2023-05-23T11:37:54;100042.34;;;23.80;38.02
31911;BME280;18457;52.432;16.914;2023-05-23T11:40:29;100044.92;;;23.72;37.81
31911;BME280;18457;52.432;16.914;2023-05-23T11:43:03;100054.67;;;23.50;39.64
31911;BME280;18457;52.432;16.914;2023-05-23T11:45:36;100059.30;;;23.09;43.41
31911;BME280;18457;52.432;16.914;2023-05-23T11:48:10;100066.13;;;22.94;45.14
31911;BME280;18457;52.432;16.914;2023-05-23T11:50:47;100073.36;;;22.66;46.99
31911;BME280;18457;52.432;16.914;2023-05-23T11:53:21;100077.44;;;22.49;48.71
31911;BME280;18457;52.432;16.914;2023-05-23T11:55:56;100088.46;;;22.19;52.01
31911;BME280;18457;52.432;16.914;2023-05-23T11:58:32;100086.62;;;21.90;53.98
31911;BME280;18457;52.432;16.914;2023-05-23T12:01:05;100088.33;;;21.69;56.53
31911;BME280;18457;52.432;16.914;2023-05-23T12:03:46;100087.81;;;21.42;57.93
31911;BME280;18457;52.432;16.914;2023-05-23T12:06:20;100091.02;;;21.11;59.98
31911;BME280;18457;52.432;16.914;2023-05-23T12:08:54;100093.72;;;20.81;60.81
31911;BME280;18457;52.432;16.914;2023-05-23T12:11:26;100091.01;;;20.55;61.51
31911;BME280;18457;52.432;16.914;2023-05-23T12:14:01;100094.70;;;20.44;61.66
31911;BME280;18457;52.432;16.914;2023-05-23T12:16:36;100095.80;;;20.44;62.41
31911;BME280;18457;52.432;16.914;2023-05-23T12:19:09;100094.08;;;20.35;62.42
31911;BME280;18457;52.432;16.914;2023-05-23T12:21:45;100093.60;;;20.28;63.13
31911;BME280;18457;52.432;16.914;2023-05-23T12:24:18;100095.14;;;20.17;64.26
31911;BME280;18457;52.432;16.914;2023-05-23T12:26:52;100094.28;;;20.16;63.84
31911;BME280;18457;52.432;16.914;2023-05-23T12:29:30;100092.34;;;20.09;64.65
31911;BME280;18457;52.432;16.914;2023-05-23T12:32:06;100091.38;;;20.07;64.86
31911;BME280;18457;52.432;16.914;2023-05-23T12:34:42;100089.86;;;20.03;65.13
31911;BME280;18457;52.432;16.914;2023-05-23T12:37:14;100087.66;;;19.97;66.13
31911;BME280;18457;52.432;16.914;2023-05-23T12:39:50;100087.16;;;19.93;66.58
31911;BME280;18457;52.432;16.914;2023-05-23T12:42:22;100089.25;;;20.09;67.66
31911;BME280;18457;52.432;16.914;2023-05-23T12:44:54;100092.11;;;20.02;68.36
31911;BME280;18457;52.432;16.914;2023-05-23T12:47:25;100093.28;;;19.87;68.97
31911;BME280;18457;52.432;16.914;2023-05-23T12:49:57;100092.86;;;19.74;70.56
31911;BME280;18457;52.432;16.914;2023-05-23T12:52:30;100095.95;;;19.53;73.13
31911;BME280;18457;52.432;16.914;2023-05-23T12:55:01;100094.29;;;19.56;72.09
31911;BME280;18457;52.432;16.914;2023-05-23T12:57:35;100092.20;;;19.43;74.58
31911;BME280;18457;52.432;16.914;2023-05-23T13:00:07;100094.82;;;19.39;75.42
31911;BME280;18457;52.432;16.914;2023-05-23T13:02:39;100095.46;;;19.38;75.67
31911;BME280;18457;52.432;16.914;2023-05-23T13:05:11;100092.02;;;19.34;76.56
31911;BME280;18457;52.432;16.914;2023-05-23T13:07:43;100094.89;;;19.24;77.07
31911;BME280;18457;52.432;16.914;2023-05-23T13:10:15;100092.73;;;18.98;78.05
31911;BME280;18457;52.432;16.914;2023-05-23T13:12:47;100095.23;;;18.88;79.20
31911;BME280;18457;52.432;16.914;2023-05-23T13:15:18;100094.55;;;18.81;79.89
31911;BME280;18457;52.432;16.914;2023-05-23T13:17:50;100094.61;;;18.86;80.01